Time;durP1;ratioP1;P1;durP2;ratioP2;P2;SDS_P1;SDS_P2;PMS_P1;PMS_P2;Temp;Humidity;BMP_temperature;BMP_pressure;BME280_temperature;BME280_humidity;BME280_pressure;Samples;Min_cycle;Max_cycle;Signal;HPM_P1;HPM_P2
2022/08/31 00:04:09;;;;;;;;;;;;;;;22.47;46.66;100854.75;4984835;28;6800;-74
2022/08/31 00:06:35;;;;;;;;;;;;;;;22.45;46.76;100860.84;4985959;28;6981;-74
2022/08/31 00:09:04;;;;;;;;;;;;;;;22.41;47.03;100859.09;4982384;28;7341;-74
2022/08/31 00:11:34;;;;;;;;;;;;;;;22.38;46.87;100861.66;4977929;28;6820;-74
2022/08/31 00:14:06;;;;;;;;;;;;;;;22.33;47.18;100867.72;4976433;28;6851;-74
2022/08/31 00:16:36;;;;;;;;;;;;;;;22.29;47.32;100871.16;4977311;28;6828;-73
2022/08/31 00:19:02;;;;;;;;;;;;;;;22.24;47.45;100872.88;4982760;28;6863;-74
2022/08/31 00:21:28;;;;;;;;;;;;;;;22.20;47.74;100881.53;4985796;28;6788;-73
2022/08/31 00:23:55;;;;;;;;;;;;;;;22.15;48.14;100884.13;4970608;28;6797;-73
2022/08/31 00:26:22;;;;;;;;;;;;;;;22.08;48.44;100882.34;4980142;28;6971;-74
2022/08/31 00:28:48;;;;;;;;;;;;;;;22.03;48.47;100890.13;4980381;28;6795;-74
2022/08/31 00:31:15;;;;;;;;;;;;;;;22.00;48.75;100889.22;4983331;28;7040;-73
2022/08/31 00:33:41;;;;;;;;;;;;;;;21.96;48.91;100893.56;4984256;28;6784;-74
2022/08/31 00:36:12;;;;;;;;;;;;;;;21.95;48.54;100891.81;4983382;28;7015;-74
2022/08/31 00:38:40;;;;;;;;;;;;;;;21.96;49.03;100888.31;4975868;28;7028;-74
2022/08/31 00:41:09;;;;;;;;;;;;;;;21.97;48.89;100889.19;4983993;28;7091;-74
2022/08/31 00:43:55;;;;;;;;;;;;;;;21.96;48.80;100882.22;4961646;28;7248;-74
2022/08/31 00:46:37;;;;;;;;;;;;;;;21.95;48.91;100881.38;4967912;28;6824;-74
2022/08/31 00:49:22;;;;;;;;;;;;;;;21.95;48.80;100877.88;4984071;28;6973;-74
2022/08/31 00:52:08;;;;;;;;;;;;;;;21.94;48.80;100883.94;4987316;28;7303;-74
2022/08/31 00:55:03;;;;;;;;;;;;;;;21.94;48.86;100886.56;4984711;28;7945;-73
2022/08/31 00:57:40;;;;;;;;;;;;;;;21.93;48.84;100883.09;4985117;28;6828;-73
2022/08/31 01:00:13;;;;;;;;;;;;;;;21.94;49.04;100890.06;4983075;28;6808;-74
2022/08/31 01:02:39;;;;;;;;;;;;;;;21.95;49.07;100889.19;4980212;28;11325;-74
2022/08/31 01:05:07;;;;;;;;;;;;;;;21.97;49.32;100890.06;4984364;28;7995;-74
2022/08/31 01:07:33;;;;;;;;;;;;;;;21.98;49.28;100897.03;4976293;28;6981;-74
2022/08/31 01:09:59;;;;;;;;;;;;;;;21.99;49.17;100898.78;4983634;28;6987;-74
2022/08/31 01:12:27;;;;;;;;;;;;;;;22.01;49.18;100898.81;4983778;28;6792;-74
2022/08/31 01:14:56;;;;;;;;;;;;;;;22.04;49.27;100904.03;4984767;28;6796;-74
2022/08/31 01:17:22;;;;;;;;;;;;;;;22.07;48.76;100906.69;4978839;28;6846;-74
2022/08/31 01:20:14;;;;;;;;;;;;;;;22.11;48.52;100907.56;4965952;28;6868;-74
2022/08/31 01:23:14;;;;;;;;;;;;;;;22.17;48.31;100910.25;4984069;28;6968;-74
2022/08/31 01:25:44;;;;;;;;;;;;;;;22.20;48.02;100902.44;4988059;28;7199;-74
2022/08/31 01:28:11;;;;;;;;;;;;;;;22.27;47.67;100892.94;4984551;28;6995;-74
2022/08/31 01:30:39;;;;;;;;;;;;;;;22.30;47.31;100895.56;4985806;28;6985;-74
2022/08/31 01:33:04;;;;;;;;;;;;;;;22.33;47.20;100899.06;4971932;28;8028;-74
2022/08/31 01:35:32;;;;;;;;;;;;;;;22.37;47.30;100899.97;4976895;28;6955;-74
2022/08/31 01:37:58;;;;;;;;;;;;;;;22.38;47.15;100901.72;4983983;28;6804;-73
2022/08/31 01:40:30;;;;;;;;;;;;;;;22.40;47.18;100899.09;4972370;28;6801;-74
2022/08/31 01:42:56;;;;;;;;;;;;;;;22.42;46.71;100907.84;4970677;28;6975;-74
2022/08/31 01:45:22;;;;;;;;;;;;;;;22.42;46.47;100919.13;4985120;28;6772;-74
2022/08/31 01:47:47;;;;;;;;;;;;;;;22.43;46.28;100917.41;4981991;28;6975;-74
2022/08/31 01:50:13;;;;;;;;;;;;;;;22.41;46.41;100914.78;4985721;28;7125;-74
2022/08/31 01:52:39;;;;;;;;;;;;;;;22.39;46.76;100894.72;4988940;28;6855;-74
2022/08/31 01:55:07;;;;;;;;;;;;;;;22.37;46.77;100896.47;4984852;28;6780;-74
2022/08/31 01:57:32;;;;;;;;;;;;;;;22.32;46.72;100896.44;4983853;28;9041;-74
2022/08/31 02:00:01;;;;;;;;;;;;;;;22.28;47.31;100895.53;4984380;28;6800;-74
2022/08/31 02:02:26;;;;;;;;;;;;;;;22.22;47.00;100900.72;4980201;28;7290;-74
2022/08/31 02:04:52;;;;;;;;;;;;;;;22.16;47.05;100901.56;4980372;28;7394;-74
2022/08/31 02:07:18;;;;;;;;;;;;;;;22.13;47.47;100900.66;4985414;28;6771;-74
2022/08/31 02:09:43;;;;;;;;;;;;;;;22.09;47.37;100906.69;4986834;28;6960;-74
2022/08/31 02:12:12;;;;;;;;;;;;;;;22.03;47.66;100911.03;4962157;28;6992;-72
2022/08/31 02:14:37;;;;;;;;;;;;;;;21.88;47.65;100913.47;4988460;28;7023;-71
2022/08/31 02:17:03;;;;;;;;;;;;;;;21.61;48.17;100913.19;4967827;28;6959;-70
2022/08/31 02:19:29;;;;;;;;;;;;;;;21.34;48.98;100904.19;4985634;28;6930;-73
2022/08/31 02:21:54;;;;;;;;;;;;;;;21.09;49.74;100903.91;4965346;28;7040;-72
2022/08/31 02:24:20;;;;;;;;;;;;;;;20.88;50.59;100909.72;4974508;28;6931;-73
2022/08/31 02:26:45;;;;;;;;;;;;;;;20.72;51.57;100921.63;4989054;28;6800;-73
2022/08/31 02:29:11;;;;;;;;;;;;;;;20.58;52.11;100924.03;4989457;28;6779;-73
2022/08/31 02:31:37;;;;;;;;;;;;;;;20.47;52.60;100922.97;4985368;28;7034;-72
2022/08/31 02:34:03;;;;;;;;;;;;;;;20.37;52.57;100925.44;4968720;28;6972;-73
2022/08/31 02:36:31;;;;;;;;;;;;;;;20.26;53.36;100920.06;4981267;28;8718;-72
2022/08/31 02:38:56;;;;;;;;;;;;;;;20.17;53.42;100924.22;4985029;28;7232;-73
2022/08/31 02:41:22;;;;;;;;;;;;;;;20.09;53.59;100919.81;4987182;28;6792;-72
2022/08/31 02:43:48;;;;;;;;;;;;;;;20.04;54.20;100920.53;4980260;28;7181;-73
2022/08/31 02:46:13;;;;;;;;;;;;;;;20.02;54.06;100924.84;4986061;28;6966;-72
2022/08/31 02:48:39;;;;;;;;;;;;;;;19.99;54.84;100917.88;4982883;28;6970;-73
2022/08/31 02:51:08;;;;;;;;;;;;;;;19.97;54.30;100919.56;4989559;28;6780;-74
2022/08/31 02:53:36;;;;;;;;;;;;;;;19.96;54.67;100912.59;4961567;28;6973;-72
2022/08/31 02:56:03;;;;;;;;;;;;;;;19.94;55.15;100914.31;4979090;28;7875;-74
2022/08/31 02:58:29;;;;;;;;;;;;;;;19.91;54.94;100920.31;4986199;28;6800;-73
2022/08/31 03:00:55;;;;;;;;;;;;;;;19.87;55.00;100913.31;4966320;28;6944;-73
2022/08/31 03:03:21;;;;;;;;;;;;;;;19.83;55.29;100912.38;4985152;28;6768;-73
2022/08/31 03:05:48;;;;;;;;;;;;;;;19.84;55.75;100910.63;4981826;28;6788;-73
2022/08/31 03:08:14;;;;;;;;;;;;;;;19.80;55.42;100908.84;4982919;28;6792;-73
2022/08/31 03:10:40;;;;;;;;;;;;;;;19.80;55.40;100911.44;4985629;28;6764;-74
2022/08/31 03:13:06;;;;;;;;;;;;;;;19.82;55.79;100913.22;4982181;28;6776;-73
2022/08/31 03:15:31;;;;;;;;;;;;;;;19.84;55.82;100913.22;4980113;28;6828;-73
2022/08/31 03:17:57;;;;;;;;;;;;;;;19.84;56.29;100916.72;4989851;28;6925;-73
2022/08/31 03:20:25;;;;;;;;;;;;;;;19.85;55.75;100923.66;4973372;28;6851;-73
2022/08/31 03:22:51;;;;;;;;;;;;;;;19.88;55.97;100924.56;4981456;28;6800;-73
2022/08/31 03:25:17;;;;;;;;;;;;;;;19.91;56.05;100925.50;4983386;28;6935;-72
2022/08/31 03:27:44;;;;;;;;;;;;;;;19.95;55.82;100931.66;4967654;28;7158;-73
2022/08/31 03:30:17;;;;;;;;;;;;;;;19.97;56.25;100936.06;4941377;28;6993;-73
2022/08/31 03:32:44;;;;;;;;;;;;;;;20.02;56.27;100935.25;4974680;28;11318;-74
2022/08/31 03:35:10;;;;;;;;;;;;;;;20.04;56.38;100941.34;4985439;28;6792;-73
2022/08/31 03:37:36;;;;;;;;;;;;;;;20.06;56.54;100937.06;4977584;28;6780;-73
2022/08/31 03:40:03;;;;;;;;;;;;;;;20.06;56.49;100932.72;4984875;28;6776;-73
2022/08/31 03:42:29;;;;;;;;;;;;;;;20.07;56.67;100933.63;4973642;28;7195;-74
2022/08/31 03:44:55;;;;;;;;;;;;;;;20.08;56.83;100931.03;4966539;28;6967;-73
2022/08/31 03:47:21;;;;;;;;;;;;;;;20.11;56.54;100941.50;4982233;28;6776;-73
2022/08/31 03:49:47;;;;;;;;;;;;;;;20.11;56.38;100941.50;4982185;28;8489;-73
2022/08/31 03:52:13;;;;;;;;;;;;;;;20.14;56.94;100938.09;4982990;28;6791;-73
2022/08/31 03:54:38;;;;;;;;;;;;;;;20.14;56.87;100935.50;4973127;28;7872;-72
2022/08/31 03:57:05;;;;;;;;;;;;;;;20.16;56.56;100938.97;4981910;28;6954;-73
2022/08/31 03:59:31;;;;;;;;;;;;;;;20.16;56.48;100935.50;4964026;28;6807;-72
2022/08/31 04:01:56;;;;;;;;;;;;;;;20.17;56.29;100942.44;4976083;28;6876;-73
2022/08/31 04:04:22;;;;;;;;;;;;;;;20.14;56.54;100934.59;4974115;28;6955;-73
2022/08/31 04:06:48;;;;;;;;;;;;;;;20.11;57.18;100936.31;4974595;28;7106;-73
2022/08/31 04:09:14;;;;;;;;;;;;;;;20.09;56.99;100935.41;4976168;28;7306;-73
2022/08/31 04:11:43;;;;;;;;;;;;;;;20.11;56.73;100935.41;4960741;28;7567;-74
2022/08/31 04:14:10;;;;;;;;;;;;;;;20.10;57.09;100928.47;4979222;28;9286;-74
2022/08/31 04:16:38;;;;;;;;;;;;;;;20.10;57.18;100936.28;4975087;28;7838;-73
2022/08/31 04:19:05;;;;;;;;;;;;;;;20.09;57.24;100932.81;4978065;28;6934;-73
2022/08/31 04:21:32;;;;;;;;;;;;;;;20.09;57.39;100932.81;4981200;28;7237;-73
2022/08/31 04:24:00;;;;;;;;;;;;;;;20.11;57.60;100928.50;4967724;28;7327;-73
2022/08/31 04:26:36;;;;;;;;;;;;;;;20.15;56.97;100931.13;4989587;28;7172;-73
2022/08/31 04:29:04;;;;;;;;;;;;;;;20.14;57.55;100929.41;4971513;28;6800;-73
2022/08/31 04:31:30;;;;;;;;;;;;;;;20.15;57.10;100931.13;4984046;28;6794;-73
2022/08/31 04:33:57;;;;;;;;;;;;;;;20.17;57.80;100937.25;4969992;28;7906;-73
2022/08/31 04:36:26;;;;;;;;;;;;;;;20.19;57.72;100931.22;4947594;28;6904;-73
2022/08/31 04:38:57;;;;;;;;;;;;;;;20.21;57.49;100926.06;4980231;28;6961;-73
2022/08/31 04:41:26;;;;;;;;;;;;;;;20.18;57.82;100924.25;4980161;28;7190;-74
2022/08/31 04:43:56;;;;;;;;;;;;;;;20.14;57.68;100919.88;4968686;28;6880;-73
2022/08/31 04:46:22;;;;;;;;;;;;;;;20.10;57.47;100924.16;4965025;28;6876;-73
2022/08/31 04:48:48;;;;;;;;;;;;;;;20.08;57.69;100915.41;4980968;28;6959;-74
2022/08/31 04:51:21;;;;;;;;;;;;;;;20.05;58.09;100911.91;4983556;28;7032;-73
2022/08/31 04:53:49;;;;;;;;;;;;;;;20.05;57.47;100915.38;4980352;28;7125;-72
2022/08/31 04:56:29;;;;;;;;;;;;;;;20.04;57.97;100915.34;4980703;28;7146;-73
2022/08/31 04:59:06;;;;;;;;;;;;;;;19.99;58.21;100915.28;4988142;28;6792;-72
2022/08/31 05:01:40;;;;;;;;;;;;;;;19.98;58.42;100923.91;4987704;28;7223;-73
2022/08/31 05:04:09;;;;;;;;;;;;;;;19.96;57.92;100921.31;4992280;28;6939;-73
2022/08/31 05:06:38;;;;;;;;;;;;;;;19.97;58.56;100922.16;4986035;28;6820;-72
2022/08/31 05:09:12;;;;;;;;;;;;;;;19.97;58.54;100919.56;4985346;28;7011;-73
2022/08/31 05:11:40;;;;;;;;;;;;;;;19.98;58.18;100923.91;4986839;28;7931;-73
2022/08/31 05:14:07;;;;;;;;;;;;;;;20.01;58.42;100917.91;4988216;28;6868;-73
2022/08/31 05:16:36;;;;;;;;;;;;;;;20.01;58.75;100913.59;4991277;28;6784;-73
2022/08/31 05:19:03;;;;;;;;;;;;;;;20.02;58.50;100909.25;4974368;28;7331;-72
2022/08/31 05:21:33;;;;;;;;;;;;;;;20.02;58.65;100909.25;4967877;28;6800;-72
2022/08/31 05:24:11;;;;;;;;;;;;;;;20.01;58.43;100910.97;4961016;28;6998;-72
2022/08/31 05:26:47;;;;;;;;;;;;;;;20.00;59.05;100911.84;4980563;28;6883;-73
2022/08/31 05:29:16;;;;;;;;;;;;;;;19.99;58.93;100907.47;4978721;28;7197;-73
2022/08/31 05:31:44;;;;;;;;;;;;;;;20.01;58.71;100913.59;4984251;28;6864;-73
2022/08/31 05:34:11;;;;;;;;;;;;;;;20.00;58.90;100919.63;4989044;28;6971;-72
2022/08/31 05:36:38;;;;;;;;;;;;;;;19.97;59.51;100915.25;4990876;28;6787;-72
2022/08/31 05:39:08;;;;;;;;;;;;;;;19.95;59.28;100921.28;4980708;28;7209;-72
2022/08/31 05:41:34;;;;;;;;;;;;;;;19.96;59.05;100920.41;4986923;28;6792;-72
2022/08/31 05:44:04;;;;;;;;;;;;;;;19.96;59.53;100926.50;4983978;28;6788;-73
2022/08/31 05:46:30;;;;;;;;;;;;;;;19.96;59.54;100915.22;4967709;28;6952;-73
2022/08/31 05:48:56;;;;;;;;;;;;;;;19.97;59.16;100922.16;4983391;28;7750;-73
2022/08/31 05:51:21;;;;;;;;;;;;;;;19.97;59.70;100915.25;4987045;28;6926;-72
2022/08/31 05:53:48;;;;;;;;;;;;;;;20.00;59.68;100922.25;4992973;28;7017;-73
2022/08/31 05:56:18;;;;;;;;;;;;;;;20.04;59.72;100924.03;4990559;28;8731;-72
2022/08/31 05:58:46;;;;;;;;;;;;;;;20.07;59.37;100931.03;4987004;28;6947;-73
2022/08/31 06:01:15;;;;;;;;;;;;;;;20.08;59.27;100924.97;4965229;28;6984;-72
2022/08/31 06:03:41;;;;;;;;;;;;;;;20.11;59.67;100927.59;4985309;28;7000;-73
2022/08/31 06:06:08;;;;;;;;;;;;;;;20.11;60.01;100925.91;4990854;28;6776;-73
2022/08/31 06:08:35;;;;;;;;;;;;;;;20.14;59.77;100929.41;4987537;28;6952;-73
2022/08/31 06:11:03;;;;;;;;;;;;;;;20.16;59.75;100932.88;4984091;28;6804;-73
2022/08/31 06:13:28;;;;;;;;;;;;;;;20.18;60.34;100936.38;4991040;28;6835;-73
2022/08/31 06:15:58;;;;;;;;;;;;;;;20.20;60.04;100934.72;4988969;28;6805;-73
2022/08/31 06:18:24;;;;;;;;;;;;;;;20.24;59.94;100936.50;4973167;28;8465;-73
2022/08/31 06:21:01;;;;;;;;;;;;;;;20.25;59.52;100931.34;4980512;28;6807;-74
2022/08/31 06:23:27;;;;;;;;;;;;;;;20.30;59.84;100931.41;4982009;28;6947;-73
2022/08/31 06:26:05;;;;;;;;;;;;;;;20.34;59.89;100941.00;4989452;28;6796;-73
2022/08/31 06:28:33;;;;;;;;;;;;;;;20.39;59.81;100948.88;4984696;28;7315;-73
2022/08/31 06:31:03;;;;;;;;;;;;;;;20.43;59.62;100944.63;4982399;28;7056;-74
2022/08/31 06:33:28;;;;;;;;;;;;;;;20.50;59.48;100946.47;4988168;28;6868;-73
2022/08/31 06:35:55;;;;;;;;;;;;;;;20.58;59.97;100952.69;4986551;28;7387;-74
2022/08/31 06:38:21;;;;;;;;;;;;;;;20.65;59.90;100944.09;4985687;28;6876;-74
2022/08/31 06:40:47;;;;;;;;;;;;;;;20.73;59.81;100945.94;4985391;28;6799;-73
2022/08/31 06:43:13;;;;;;;;;;;;;;;20.81;59.92;100949.53;4989552;28;7206;-74
2022/08/31 06:45:38;;;;;;;;;;;;;;;20.88;59.75;100953.13;4985193;28;6803;-73
2022/08/31 06:48:04;;;;;;;;;;;;;;;20.94;59.60;100959.28;4986073;28;6812;-73
2022/08/31 06:50:30;;;;;;;;;;;;;;;21.03;59.81;100960.28;4983690;28;6852;-73
2022/08/31 06:52:56;;;;;;;;;;;;;;;21.08;59.38;100964.69;4979081;28;6772;-74
2022/08/31 06:55:22;;;;;;;;;;;;;;;21.13;58.89;100956.06;4988540;28;6799;-73
2022/08/31 06:57:48;;;;;;;;;;;;;;;21.16;59.18;100957.00;4965016;28;6990;-73
2022/08/31 07:00:14;;;;;;;;;;;;;;;21.19;59.14;100954.41;4985554;28;6768;-73
2022/08/31 07:02:39;;;;;;;;;;;;;;;21.20;59.10;100963.13;4987256;28;6868;-73
2022/08/31 07:05:05;;;;;;;;;;;;;;;21.21;59.13;100964.88;4969555;28;6964;-73
2022/08/31 07:07:31;;;;;;;;;;;;;;;21.21;59.21;100964.88;4985837;28;6988;-73
2022/08/31 07:09:57;;;;;;;;;;;;;;;21.22;59.06;100962.25;4980821;28;6800;-73
2022/08/31 07:12:22;;;;;;;;;;;;;;;21.23;59.19;100971.84;4987676;28;6783;-72
2022/08/31 07:14:48;;;;;;;;;;;;;;;21.27;59.45;100970.16;4973804;28;7103;-73
2022/08/31 07:17:14;;;;;;;;;;;;;;;21.32;59.22;100975.41;4982715;28;6939;-73
2022/08/31 07:19:40;;;;;;;;;;;;;;;21.34;59.15;100969.38;4984176;28;7227;-74
2022/08/31 07:22:08;;;;;;;;;;;;;;;21.39;59.36;100973.75;4984452;28;7000;-74
2022/08/31 07:24:35;;;;;;;;;;;;;;;21.44;59.17;100978.19;4978742;28;7343;-74
2022/08/31 07:27:08;;;;;;;;;;;;;;;21.51;59.38;100979.16;4987714;28;6803;-74
2022/08/31 07:29:39;;;;;;;;;;;;;;;21.56;59.11;100972.22;4982043;28;7161;-74
2022/08/31 07:32:08;;;;;;;;;;;;;;;21.63;59.23;100973.16;4964290;28;7164;-74
2022/08/31 07:34:35;;;;;;;;;;;;;;;21.70;59.03;100982.84;4980892;28;6785;-74
2022/08/31 07:42:43;;;;;;;;;;;;;;;21.88;59.01;100983.91;4973268;28;6797;-74
2022/08/31 07:45:27;;;;;;;;;;;;;;;21.92;58.76;100989.19;4979319;28;7009;-74
2022/08/31 07:47:54;;;;;;;;;;;;;;;21.96;58.67;100997.94;4967880;28;7102;-74
2022/08/31 07:50:22;;;;;;;;;;;;;;;21.96;58.33;100987.50;4982518;28;6946;-74
2022/08/31 07:52:52;;;;;;;;;;;;;;;21.99;58.13;100991.88;4959384;28;7313;-74
2022/08/31 07:55:21;;;;;;;;;;;;;;;22.00;58.08;100988.41;4985382;28;7200;-74
2022/08/31 07:57:49;;;;;;;;;;;;;;;22.04;57.93;101001.50;4981912;28;6796;-74
2022/08/31 08:00:23;;;;;;;;;;;;;;;22.10;58.17;100994.56;4982206;28;6955;-75
2022/08/31 08:02:49;;;;;;;;;;;;;;;22.15;57.81;100995.50;4984475;28;6805;-74
2022/08/31 08:05:25;;;;;;;;;;;;;;;22.19;57.96;100992.03;4960193;28;7361;-74
2022/08/31 08:07:56;;;;;;;;;;;;;;;22.23;57.52;100996.44;4970170;28;6908;-74
2022/08/31 08:10:23;;;;;;;;;;;;;;;22.26;57.49;100996.47;4978298;28;8521;-74
2022/08/31 08:12:59;;;;;;;;;;;;;;;22.31;57.69;101000.00;4990076;28;6859;-74
2022/08/31 08:15:25;;;;;;;;;;;;;;;22.36;57.77;101002.66;4984542;28;6816;-75
2022/08/31 08:17:51;;;;;;;;;;;;;;;22.39;57.28;100999.19;4960961;28;6979;-74
2022/08/31 08:20:18;;;;;;;;;;;;;;;22.42;57.62;101001.84;4986245;28;6776;-75
2022/08/31 08:22:44;;;;;;;;;;;;;;;22.48;57.68;101007.09;4978575;28;7321;-74
2022/08/31 08:25:12;;;;;;;;;;;;;;;22.52;57.34;101011.53;4986158;28;6796;-74
2022/08/31 08:27:38;;;;;;;;;;;;;;;22.59;57.24;101012.44;4969147;28;6808;-75
2022/08/31 08:30:07;;;;;;;;;;;;;;;22.63;57.12;101015.97;4982439;28;6787;-75
2022/08/31 08:32:34;;;;;;;;;;;;;;;22.67;57.29;101017.72;4979702;28;6812;-74
2022/08/31 08:35:00;;;;;;;;;;;;;;;22.71;57.05;101014.28;4967309;28;7034;-75
2022/08/31 08:37:26;;;;;;;;;;;;;;;22.77;56.99;101014.31;4982681;28;7184;-74
2022/08/31 08:39:52;;;;;;;;;;;;;;;22.84;56.98;101023.06;4976815;28;6796;-75
2022/08/31 08:42:20;;;;;;;;;;;;;;;22.85;56.36;101024.84;4983940;28;6800;-74
2022/08/31 08:44:47;;;;;;;;;;;;;;;22.87;56.00;101023.97;4978693;28;6980;-74
2022/08/31 08:47:19;;;;;;;;;;;;;;;22.86;56.01;101029.19;4988221;28;7476;-74
2022/08/31 08:49:48;;;;;;;;;;;;;;;22.85;55.58;101033.53;4979815;28;6792;-75
2022/08/31 08:52:34;;;;;;;;;;;;;;;22.86;55.93;101030.06;4977950;28;6841;-75
2022/08/31 08:55:06;;;;;;;;;;;;;;;22.89;56.31;101029.22;4975141;28;8404;-75
2022/08/31 08:57:41;;;;;;;;;;;;;;;22.95;55.88;101037.09;4983225;28;7015;-75
2022/08/31 09:00:18;;;;;;;;;;;;;;;23.01;56.21;101033.66;4980079;28;6988;-75
2022/08/31 09:02:57;;;;;;;;;;;;;;;23.07;56.13;101038.03;4983673;28;11262;-74
2022/08/31 09:06:06;;;;;;;;;;;;;;;23.11;56.07;101030.22;4972594;28;7468;-74
2022/08/31 09:09:16;;;;;;;;;;;;;;;23.13;55.99;101033.72;4978835;28;7085;-75
2022/08/31 09:12:05;;;;;;;;;;;;;;;23.13;56.09;101033.72;4979642;28;6804;-75
2022/08/31 09:15:14;;;;;;;;;;;;;;;23.19;55.83;101032.03;4986272;28;7030;-75
2022/08/31 09:18:13;;;;;;;;;;;;;;;23.24;55.32;101035.53;4967805;28;7250;-75
2022/08/31 09:20:40;;;;;;;;;;;;;;;23.29;55.22;101039.09;4981779;28;7222;-75
2022/08/31 09:23:06;;;;;;;;;;;;;;;23.33;54.92;101035.59;4984767;28;6995;-75
2022/08/31 09:25:52;;;;;;;;;;;;;;;23.40;55.08;101033.88;4981631;28;6887;-75
2022/08/31 09:28:36;;;;;;;;;;;;;;;23.47;54.68;101040.00;4972468;28;7021;-75
2022/08/31 09:31:03;;;;;;;;;;;;;;;23.55;55.02;101033.97;4982888;28;6820;-75
2022/08/31 09:33:33;;;;;;;;;;;;;;;23.66;54.48;101033.13;4963514;28;6910;-74
2022/08/31 09:36:24;;;;;;;;;;;;;;;23.77;54.85;101036.66;4979041;28;7679;-75
2022/08/31 09:38:50;;;;;;;;;;;;;;;23.92;54.25;101035.81;4973487;28;6951;-75
2022/08/31 09:41:28;;;;;;;;;;;;;;;24.14;54.96;101035.91;4956280;28;7598;-75
2022/08/31 09:44:13;;;;;;;;;;;;;;;24.40;54.08;101040.31;4982415;28;7171;-75
2022/08/31 09:46:52;;;;;;;;;;;;;;;24.68;53.42;101029.81;4985936;28;7897;-75
2022/08/31 09:49:26;;;;;;;;;;;;;;;24.90;52.55;101035.97;4968703;28;6824;-74
2022/08/31 09:52:12;;;;;;;;;;;;;;;25.08;52.92;101032.41;4980424;28;7334;-74
2022/08/31 09:57:52;;;;;;;;;;;;;;;25.56;51.55;101031.41;4987171;28;10099;-75
2022/08/31 10:00:50;;;;;;;;;;;;;;;25.71;51.56;101027.00;4984177;28;6807;-75
2022/08/31 10:03:29;;;;;;;;;;;;;;;25.86;51.09;101024.25;4978012;28;7192;-75
2022/08/31 10:05:56;;;;;;;;;;;;;;;26.01;51.09;101025.06;4985175;28;6808;-75
2022/08/31 10:08:41;;;;;;;;;;;;;;;26.33;50.96;101037.13;4989112;28;6978;-75
2022/08/31 10:11:20;;;;;;;;;;;;;;;26.67;50.20;101036.84;4987325;28;6832;-75
2022/08/31 10:14:02;;;;;;;;;;;;;;;26.97;49.75;101033.97;4987950;28;7181;-75
2022/08/31 10:16:48;;;;;;;;;;;;;;;27.24;49.25;101027.53;4986405;28;6827;-75
2022/08/31 10:19:31;;;;;;;;;;;;;;;27.57;49.05;101033.28;4985228;28;6887;-74
2022/08/31 10:22:21;;;;;;;;;;;;;;;27.89;48.64;101028.50;4987145;28;6823;-75
2022/08/31 10:25:17;;;;;;;;;;;;;;;28.23;47.69;101020.09;4970986;28;7007;-75
2022/08/31 10:28:18;;;;;;;;;;;;;;;28.53;46.50;101017.84;4986028;28;7206;-75
2022/08/31 10:31:21;;;;;;;;;;;;;;;28.73;46.04;101023.66;4982464;28;8448;-75
2022/08/31 10:36:59;;;;;;;;;;;;;;;28.89;45.28;101011.97;4979887;28;7108;-75
2022/08/31 10:39:33;;;;;;;;;;;;;;;28.96;45.31;101026.75;4965258;28;6981;-74
2022/08/31 10:42:08;;;;;;;;;;;;;;;29.09;45.54;101010.72;4986286;28;7845;-75
2022/08/31 10:45:02;;;;;;;;;;;;;;;29.33;45.12;101014.63;4987325;28;6831;-74
2022/08/31 10:47:29;;;;;;;;;;;;;;;29.54;44.33;101017.75;4954863;28;7427;-74
2022/08/31 10:50:02;;;;;;;;;;;;;;;29.66;44.08;101006.03;4980009;28;6788;-75
2022/08/31 10:52:56;;;;;;;;;;;;;;;29.80;43.69;101014.50;4986287;28;6820;-74
2022/08/31 10:55:36;;;;;;;;;;;;;;;30.01;43.28;101021.97;4957411;28;7008;-75
2022/08/31 10:58:30;;;;;;;;;;;;;;;30.21;42.89;101016.22;4981728;28;7335;-75
2022/08/31 11:01:06;;;;;;;;;;;;;;;30.48;43.15;101012.03;4981092;28;7349;-75
2022/08/31 11:04:01;;;;;;;;;;;;;;;30.89;41.71;101017.16;4981021;28;7845;-75
2022/08/31 11:06:49;;;;;;;;;;;;;;;31.39;41.52;101010.50;4990698;28;8728;-75
2022/08/31 11:09:24;;;;;;;;;;;;;;;31.81;40.68;101011.03;4982010;28;6827;-75
2022/08/31 11:12:05;;;;;;;;;;;;;;;32.61;39.94;101010.19;4980068;28;8097;-75
2022/08/31 11:15:22;;;;;;;;;;;;;;;33.66;38.68;100997.50;4969462;28;6820;-75
2022/08/31 11:18:13;;;;;;;;;;;;;;;35.05;37.17;100999.72;4945087;28;6836;-75
2022/08/31 11:21:28;;;;;;;;;;;;;;;36.04;34.00;100991.50;4922068;28;7345;-73
2022/08/31 11:24:19;;;;;;;;;;;;;;;36.85;32.94;100998.06;4959947;28;7062;-73
2022/08/31 11:27:19;;;;;;;;;;;;;;;37.68;31.44;100986.44;4980626;28;6816;-73
2022/08/31 11:29:56;;;;;;;;;;;;;;;38.33;30.63;100996.03;4979685;28;7322;-73
2022/08/31 11:32:39;;;;;;;;;;;;;;;38.78;29.76;100987.09;4981903;28;7219;-73
2022/08/31 11:35:09;;;;;;;;;;;;;;;39.12;28.83;100974.28;4971005;28;7158;-73
2022/08/31 11:37:45;;;;;;;;;;;;;;;39.32;28.01;100977.50;4985160;28;6788;-73
2022/08/31 11:40:12;;;;;;;;;;;;;;;39.42;27.76;100973.28;4984297;28;7255;-73
2022/08/31 11:42:37;;;;;;;;;;;;;;;39.52;27.18;100970.00;4979571;28;6812;-73
2022/08/31 11:45:29;;;;;;;;;;;;;;;39.68;26.78;100968.00;4969769;28;7736;-73
2022/08/31 11:47:56;;;;;;;;;;;;;;;39.79;26.38;100963.72;4961645;28;7340;-73
2022/08/31 11:50:21;;;;;;;;;;;;;;;39.79;25.63;100969.97;4986240;28;6974;-73
2022/08/31 11:52:52;;;;;;;;;;;;;;;39.65;25.76;100960.16;4986592;28;6796;-73
2022/08/31 11:55:48;;;;;;;;;;;;;;;39.61;26.28;100961.34;4966722;28;6884;-73
2022/08/31 11:58:24;;;;;;;;;;;;;;;39.59;26.36;100965.94;4986455;28;7047;-73
2022/08/31 12:01:09;;;;;;;;;;;;;;;39.61;26.63;100965.84;4980286;28;6883;-73
2022/08/31 12:04:02;;;;;;;;;;;;;;;39.54;26.76;100957.34;4988752;28;6812;-73
2022/08/31 12:06:28;;;;;;;;;;;;;;;39.50;26.76;100955.81;4983589;28;6800;-73
2022/08/31 12:09:22;;;;;;;;;;;;;;;39.49;26.29;100962.13;4985855;28;6788;-73
2022/08/31 12:12:11;;;;;;;;;;;;;;;39.50;26.16;100961.19;4979993;28;7533;-73
2022/08/31 12:14:56;;;;;;;;;;;;;;;39.49;26.20;100951.41;4979773;28;6828;-73
2022/08/31 12:17:54;;;;;;;;;;;;;;;39.46;25.98;100948.94;4984211;28;6966;-73
2022/08/31 12:20:30;;;;;;;;;;;;;;;39.51;25.85;100946.84;4986380;28;6827;-73
2022/08/31 12:23:39;;;;;;;;;;;;;;;39.54;25.29;100944.78;4984403;28;8108;-73
2022/08/31 12:26:41;;;;;;;;;;;;;;;39.44;25.67;100939.19;4986120;28;7137;-73
2022/08/31 12:29:27;;;;;;;;;;;;;;;39.49;25.94;100940.69;4987306;28;7319;-73
2022/08/31 12:32:27;;;;;;;;;;;;;;;39.48;25.40;100939.84;4962224;28;6879;-73
2022/08/31 12:35:15;;;;;;;;;;;;;;;39.36;25.62;100937.97;4983832;28;6951;-73
2022/08/31 12:37:41;;;;;;;;;;;;;;;39.25;25.93;100933.28;4985942;28;6792;-73
2022/08/31 12:40:22;;;;;;;;;;;;;;;39.18;25.70;100932.84;4973101;28;7246;-73
2022/08/31 12:42:59;;;;;;;;;;;;;;;39.12;25.85;100935.91;4979475;28;7253;-73
2022/08/31 12:46:18;;;;;;;;;;;;;;;39.05;25.76;100930.09;4987182;28;7051;-73
2022/08/31 12:48:53;;;;;;;;;;;;;;;38.90;25.81;100929.22;4961149;28;7009;-73
2022/08/31 12:51:37;;;;;;;;;;;;;;;38.88;25.53;100932.00;4967124;28;6812;-73
2022/08/31 12:54:27;;;;;;;;;;;;;;;38.86;25.62;100925.88;4981820;28;6800;-73
2022/08/31 12:57:27;;;;;;;;;;;;;;;38.67;25.66;100926.19;4984418;28;7015;-73
2022/08/31 13:00:18;;;;;;;;;;;;;;;38.48;25.73;100926.47;4979194;28;6808;-73
2022/08/31 13:02:49;;;;;;;;;;;;;;;38.17;25.55;100928.34;4976005;28;11227;-73
2022/08/31 13:05:33;;;;;;;;;;;;;;;37.91;25.93;100920.91;4960334;28;7237;-73
2022/08/31 13:08:00;;;;;;;;;;;;;;;37.73;26.13;100928.19;4983715;28;6856;-73
2022/08/31 13:10:34;;;;;;;;;;;;;;;37.71;26.41;100915.88;4977595;28;7284;-73
2022/08/31 13:13:08;;;;;;;;;;;;;;;37.79;26.45;100917.16;4968109;28;6812;-73
2022/08/31 13:15:42;;;;;;;;;;;;;;;37.79;26.34;100917.16;4970199;28;7016;-73
2022/08/31 13:18:24;;;;;;;;;;;;;;;37.72;26.35;100912.28;4968652;28;6823;-73
2022/08/31 13:21:01;;;;;;;;;;;;;;;37.71;26.30;100913.19;4988089;28;6828;-74
2022/08/31 13:23:37;;;;;;;;;;;;;;;37.70;26.54;100916.81;4971115;28;6832;-73
2022/08/31 13:26:19;;;;;;;;;;;;;;;37.62;26.33;100909.25;4988510;28;6824;-73
2022/08/31 13:28:56;;;;;;;;;;;;;;;37.30;26.22;100901.28;4993209;28;7263;-73
2022/08/31 13:31:28;;;;;;;;;;;;;;;36.63;26.05;100907.59;4985441;28;8905;-72